Time;durP1;ratioP1;P1;durP2;ratioP2;P2;SDS_P1;SDS_P2;PMS_P1;PMS_P2;Temp;Humidity;BMP_temperature;BMP_pressure;BME280_temperature;BME280_humidity;BME280_pressure;Samples;Min_cycle;Max_cycle;Signal;HPM_P1;HPM_P2
2021/06/26 00:01:50;;;;;;;19.10;15.63;;;;;;;18.62;82.76;96819.00;127485;1093;26293;-96
2021/06/26 00:04:22;;;;;;;20.00;16.20;;;;;;;18.64;82.97;96816.80;127680;1093;114081;-95
2021/06/26 00:06:53;;;;;;;23.80;17.80;;;;;;;18.68;83.08;96815.03;127592;1093;26365;-94
2021/06/26 00:09:24;;;;;;;22.03;18.23;;;;;;;18.69;83.20;96814.70;127745;1093;114330;-94
2021/06/26 00:11:56;;;;;;;23.15;18.18;;;;;;;18.74;83.42;96813.75;127853;1093;26046;-92
2021/06/26 00:14:27;;;;;;;24.53;17.40;;;;;;;18.78;83.30;96817.34;127818;1093;26957;-92
2021/06/26 00:16:59;;;;;;;23.35;18.45;;;;;;;18.82;83.34;96814.78;127395;1093;113886;-93
2021/06/26 00:19:30;;;;;;;26.30;19.75;;;;;;;18.86;83.46;96821.89;127422;1093;24705;-93
2021/06/26 00:22:01;;;;;;;26.87;20.70;;;;;;;18.83;83.48;96819.05;127415;1093;114109;-93
2021/06/26 00:24:33;;;;;;;24.20;19.35;;;;;;;18.77;83.39;96815.77;127742;1093;23680;-92
2021/06/26 00:27:05;;;;;;;25.28;20.33;;;;;;;18.68;83.37;96823.08;127852;1093;25021;-92
2021/06/26 00:29:36;;;;;;;24.03;18.68;;;;;;;18.66;83.55;96828.00;127421;1093;114343;-93
2021/06/26 00:32:08;;;;;;;22.28;19.18;;;;;;;18.66;83.69;96819.94;127546;1093;37558;-91
2021/06/26 00:34:39;;;;;;;22.08;17.68;;;;;;;18.69;83.84;96819.28;127575;1093;114026;-94
2021/06/26 00:37:11;;;;;;;24.20;18.88;;;;;;;18.70;84.13;96812.80;127671;1092;25426;-94
2021/06/26 00:39:42;;;;;;;25.00;19.95;;;;;;;18.71;83.93;96810.90;127390;1093;114276;-92
2021/06/26 00:42:13;;;;;;;25.10;19.87;;;;;;;18.65;84.11;96819.16;127471;1092;24184;-92
2021/06/26 00:44:45;;;;;;;29.65;22.45;;;;;;;18.58;83.99;96813.49;127447;1093;24513;-94
2021/06/26 00:47:16;;;;;;;26.55;20.50;;;;;;;18.48;83.90;96821.91;127337;1093;114251;-91
2021/06/26 00:49:48;;;;;;;24.95;19.65;;;;;;;18.38;84.12;96823.05;127557;1093;23268;-93
2021/06/26 00:52:19;;;;;;;22.95;19.53;;;;;;;18.29;84.26;96824.19;127683;1093;114336;-93
2021/06/26 00:54:51;;;;;;;24.85;19.60;;;;;;;18.22;84.83;96830.07;127725;1093;25845;-92
2021/06/26 00:57:23;;;;;;;22.50;19.20;;;;;;;18.17;85.05;96824.89;127392;1093;114393;-92
2021/06/26 00:59:55;;;;;;;25.93;20.03;;;;;;;18.15;85.09;96820.93;127436;1093;25608;-96
2021/06/26 01:02:26;;;;;;;24.88;19.50;;;;;;;18.17;85.35;96824.10;127794;1093;26844;-92
2021/06/26 01:04:58;;;;;;;26.55;20.80;;;;;;;18.21;85.63;96822.34;127284;1093;114129;-92
2021/06/26 01:07:29;;;;;;;24.70;18.55;;;;;;;18.23;85.76;96820.91;127466;1093;22948;-95
2021/06/26 01:10:01;;;;;;;22.00;17.70;;;;;;;18.26;85.84;96822.94;127348;1093;115705;-95
2021/06/26 01:12:32;;;;;;;25.78;19.25;;;;;;;18.35;85.95;96823.70;127483;1093;24295;-93
2021/06/26 01:15:04;;;;;;;23.75;18.50;;;;;;;18.45;86.11;96816.41;127425;1093;31349;-95
2021/06/26 01:17:36;;;;;;;22.43;18.53;;;;;;;18.49;85.98;96815.42;127452;1091;113846;-92
2021/06/26 01:20:11;;;;;;;26.33;20.50;;;;;;;18.54;85.94;96809.08;127531;1092;25955;-92
2021/06/26 01:22:44;;;;;;;23.95;18.70;;;;;;;18.55;86.00;96807.96;127366;1093;114200;-91
2021/06/26 01:25:19;;;;;;;24.43;18.55;;;;;;;18.59;85.99;96800.85;127443;1093;24967;-95
2021/06/26 01:27:52;;;;;;;23.95;18.55;;;;;;;18.62;85.86;96794.83;127408;1093;114178;-93
2021/06/26 01:30:29;;;;;;;22.97;16.43;;;;;;;18.63;85.61;96788.34;127647;1093;24505;-93
2021/06/26 01:33:01;;;;;;;21.73;17.25;;;;;;;18.66;85.72;96788.50;127674;1092;24285;-94
2021/06/26 01:35:33;;;;;;;23.58;19.53;;;;;;;18.74;85.76;96788.78;127683;1093;114026;-93
2021/06/26 01:38:06;;;;;;;24.37;17.80;;;;;;;18.76;85.53;96781.97;127836;1093;28344;-92
2021/06/26 01:40:40;;;;;;;20.00;16.95;;;;;;;18.77;85.78;96780.86;127720;1093;114162;-93
2021/06/26 01:43:15;;;;;;;21.38;16.58;;;;;;;18.77;85.61;96775.48;127797;1093;39329;-94
2021/06/26 01:45:46;;;;;;;20.50;16.88;;;;;;;18.78;85.58;96773.58;127413;1093;114385;-93
2021/06/26 01:48:17;;;;;;;20.60;18.10;;;;;;;18.75;85.34;96768.88;127566;1093;34316;-94
2021/06/26 01:50:49;;;;;;;22.68;17.68;;;;;;;18.76;85.46;96765.07;127782;1093;25086;-91
2021/06/26 01:53:21;;;;;;;24.13;19.55;;;;;;;18.81;85.75;96768.34;127347;1093;114216;-94
2021/06/26 01:55:53;;;;;;;23.68;18.73;;;;;;;18.80;85.30;96765.98;127469;1093;24441;-96
2021/06/26 01:58:24;;;;;;;21.98;17.88;;;;;;;18.66;85.07;96758.96;127661;1092;114022;-92
2021/06/26 02:00:56;;;;;;;23.40;17.18;;;;;;;18.57;84.96;96762.77;127763;1093;24646;-93
2021/06/26 02:03:27;;;;;;;21.73;17.48;;;;;;;18.39;84.88;96768.25;127523;1093;115044;-93
2021/06/26 02:05:58;;;;;;;20.10;16.18;;;;;;;18.32;85.15;96765.30;127484;1093;23868;-92
2021/06/26 02:08:31;;;;;;;14.08;11.83;;;;;;;18.31;84.61;96766.42;127446;1093;24043;-92
2021/06/26 02:11:03;;;;;;;15.48;12.00;;;;;;;18.36;84.63;96776.96;127485;1093;114200;-94
2021/06/26 02:13:34;;;;;;;14.85;12.25;;;;;;;18.44;84.96;96774.54;127668;1093;23817;-96
2021/06/26 02:16:06;;;;;;;12.38;10.65;;;;;;;18.50;84.42;96779.41;127570;1093;113954;-94
2021/06/26 02:18:37;;;;;;;13.30;11.58;;;;;;;18.56;84.36;96783.47;127541;1092;24133;-93
2021/06/26 02:21:09;;;;;;;14.20;11.93;;;;;;;18.58;83.83;96785.83;127826;1093;26044;-90
2021/06/26 02:23:40;;;;;;;13.05;11.10;;;;;;;18.57;83.78;96782.36;127686;1093;114681;-93
2021/06/26 02:26:12;;;;;;;14.08;12.23;;;;;;;18.55;83.38;96781.11;127431;1093;24111;-92
2021/06/26 02:28:45;;;;;;;13.73;12.18;;;;;;;18.39;82.97;96787.05;127627;1093;114694;-92
2021/06/26 02:31:16;;;;;;;16.75;13.55;;;;;;;18.23;83.04;96794.07;127890;1092;25661;-92
2021/06/26 02:33:47;;;;;;;19.68;16.15;;;;;;;18.12;83.22;96795.53;127462;1093;114207;-94
2021/06/26 02:36:19;;;;;;;21.70;17.08;;;;;;;18.05;83.84;96789.89;127858;1093;26714;-91
2021/06/26 02:38:50;;;;;;;23.23;17.30;;;;;;;18.10;84.36;96793.17;127526;1093;24199;-93
2021/06/26 02:41:22;;;;;;;14.90;11.85;;;;;;;18.16;84.38;96795.67;127328;1093;114039;-95
2021/06/26 02:43:54;;;;;;;17.03;13.07;;;;;;;18.17;84.35;96792.69;127706;1093;24586;-91
2021/06/26 02:46:25;;;;;;;20.30;16.03;;;;;;;18.19;84.25;96787.78;127577;1093;114300;-92
2021/06/26 02:48:56;;;;;;;22.98;17.50;;;;;;;18.17;84.31;96797.27;127700;1093;23309;-96
2021/06/26 02:51:27;;;;;;;23.10;18.68;;;;;;;18.13;84.21;96801.69;127678;1093;114230;-96
2021/06/26 02:53:59;;;;;;;20.30;18.10;;;;;;;18.04;84.14;96805.20;127553;1092;28242;-92
2021/06/26 02:56:30;;;;;;;22.05;18.10;;;;;;;17.99;84.40;96812.63;127546;1093;24395;-91
2021/06/26 02:59:02;;;;;;;19.05;15.35;;;;;;;18.04;84.53;96809.78;127399;1093;114737;-92
2021/06/26 03:01:33;;;;;;;21.77;17.13;;;;;;;18.11;84.95;96815.42;127468;1092;28145;-93
2021/06/26 03:04:05;;;;;;;22.17;16.63;;;;;;;18.19;84.92;96821.88;127603;1093;114199;-92
2021/06/26 03:06:36;;;;;;;17.68;15.00;;;;;;;18.17;85.09;96832.94;127887;1093;23815;-93
2021/06/26 03:09:08;;;;;;;20.03;15.98;;;;;;;18.10;84.97;96838.00;127717;1093;30651;-90
2021/06/26 03:11:40;;;;;;;19.53;15.58;;;;;;;18.03;84.89;96827.78;127496;1093;114169;-91
2021/06/26 03:14:11;;;;;;;16.90;14.67;;;;;;;18.10;85.12;96827.27;127671;1093;25424;-91
2021/06/26 03:16:43;;;;;;;16.00;13.30;;;;;;;18.19;85.26;96828.03;127497;1093;114019;-91
2021/06/26 03:19:15;;;;;;;18.78;14.50;;;;;;;18.17;84.92;96835.63;127604;1093;26261;-90
2021/06/26 03:21:46;;;;;;;18.18;13.68;;;;;;;18.08;84.99;96830.28;127710;1093;114269;-91
2021/06/26 03:24:18;;;;;;;16.25;13.78;;;;;;;18.10;84.51;96830.73;127610;1093;28422;-92
2021/06/26 03:26:49;;;;;;;16.55;12.95;;;;;;;18.06;84.02;96829.81;127607;1093;24005;-92
2021/06/26 03:29:21;;;;;;;14.60;12.15;;;;;;;18.13;84.68;96828.52;127715;1093;114253;-91
2021/06/26 03:31:52;;;;;;;15.23;11.90;;;;;;;18.16;84.54;96820.64;127891;1092;23345;-91
2021/06/26 03:34:23;;;;;;;16.08;12.38;;;;;;;18.20;84.49;96818.09;127803;1093;114608;-91
2021/06/26 03:36:54;;;;;;;15.10;13.08;;;;;;;18.27;84.56;96829.09;127898;1093;25029;-91
2021/06/26 03:39:26;;;;;;;17.65;14.58;;;;;;;18.26;84.39;96820.26;127699;1093;114373;-91
2021/06/26 03:41:57;;;;;;;15.90;12.83;;;;;;;18.27;84.37;96816.47;127847;1093;24336;-91
2021/06/26 03:44:29;;;;;;;15.65;11.83;;;;;;;18.35;84.22;96820.23;127772;1093;27705;-91
2021/06/26 03:47:00;;;;;;;13.28;11.45;;;;;;;18.43;84.19;96818.60;127654;1093;114070;-91
2021/06/26 03:49:34;;;;;;;14.15;11.13;;;;;;;18.46;83.87;96820.66;127874;1093;22979;-91
2021/06/26 03:52:07;;;;;;;14.60;12.70;;;;;;;18.44;83.29;96817.48;127772;1093;113968;-91
2021/06/26 03:54:39;;;;;;;13.50;11.08;;;;;;;18.45;83.17;96814.51;127844;1093;22799;-92
2021/06/26 03:57:10;;;;;;;14.53;12.17;;;;;;;18.44;82.98;96815.63;127844;1093;22847;-91
2021/06/26 03:59:42;;;;;;;12.53;11.18;;;;;;;18.43;82.71;96814.02;127746;1093;114262;-92
2021/06/26 04:02:13;;;;;;;12.30;10.30;;;;;;;18.47;82.77;96820.34;127823;1093;23721;-91
2021/06/26 04:04:44;;;;;;;13.05;10.13;;;;;;;18.49;82.33;96817.33;127738;1091;114069;-91
2021/06/26 04:07:16;;;;;;;11.68;10.30;;;;;;;18.48;81.97;96821.91;127854;1093;23952;-91
2021/06/26 04:09:47;;;;;;;14.10;11.10;;;;;;;18.56;82.30;96812.22;127557;1093;114222;-91
2021/06/26 04:12:19;;;;;;;16.33;11.45;;;;;;;18.60;81.74;96808.58;127835;1092;27722;-92
2021/06/26 04:14:50;;;;;;;12.30;10.60;;;;;;;18.57;81.02;96800.36;127605;1092;26012;-92
2021/06/26 04:17:22;;;;;;;13.43;9.93;;;;;;;18.58;81.46;96804.63;127728;1093;114133;-92
2021/06/26 04:19:53;;;;;;;12.10;8.90;;;;;;;18.67;81.41;96802.72;127752;1093;26607;-96
2021/06/26 04:22:24;;;;;;;10.83;9.63;;;;;;;18.76;81.00;96799.98;127420;1093;114274;-91
2021/06/26 04:24:56;;;;;;;12.48;11.18;;;;;;;18.86;80.89;96797.71;127743;1093;24824;-92
2021/06/26 04:27:27;;;;;;;13.78;12.28;;;;;;;18.90;80.39;96798.63;127743;1093;114194;-90
2021/06/26 04:29:59;;;;;;;15.10;12.30;;;;;;;18.93;80.26;96797.17;127839;1093;23502;-90
2021/06/26 04:32:31;;;;;;;18.00;14.85;;;;;;;18.92;80.00;96799.08;127676;1093;25000;-91
2021/06/26 04:35:03;;;;;;;14.13;11.80;;;;;;;18.88;79.28;96795.48;127558;1093;114370;-91
2021/06/26 04:37:34;;;;;;;14.70;11.73;;;;;;;18.85;79.37;96804.17;127439;1093;36315;-91
2021/06/26 04:40:09;;;;;;;13.05;11.65;;;;;;;18.89;79.13;96805.11;127668;1093;114647;-94
2021/06/26 04:42:40;;;;;;;14.75;12.08;;;;;;;19.01;79.45;96809.77;127465;1093;25413;-91
2021/06/26 04:45:13;;;;;;;13.40;11.53;;;;;;;19.19;79.53;96808.52;127430;1092;27276;-92
2021/06/26 04:47:46;;;;;;;11.80;9.23;;;;;;;19.42;79.69;96810.84;127608;1093;114191;-91
2021/06/26 04:50:17;;;;;;;12.20;9.00;;;;;;;19.63;79.19;96810.86;127732;1093;23142;-91
2021/06/26 04:52:49;;;;;;;9.80;7.53;;;;;;;19.77;78.69;96820.20;127521;1093;114210;-90
2021/06/26 04:55:21;;;;;;;8.85;7.25;;;;;;;19.91;77.72;96829.88;127620;1093;22819;-91
2021/06/26 04:57:52;;;;;;;11.93;7.83;;;;;;;19.96;76.79;96826.97;127507;1093;114210;-92
2021/06/26 05:00:25;;;;;;;10.20;8.03;;;;;;;19.96;76.67;96826.97;127672;1093;23356;-91
2021/06/26 05:02:56;;;;;;;11.08;7.95;;;;;;;19.99;76.16;96827.11;127699;1092;23067;-91
2021/06/26 05:05:27;;;;;;;9.08;6.65;;;;;;;19.94;75.47;96829.99;127508;1093;114081;-91
2021/06/26 05:07:59;;;;;;;8.30;7.30;;;;;;;19.82;75.02;96827.27;127589;1093;24428;-92
2021/06/26 05:10:30;;;;;;;10.25;8.03;;;;;;;19.73;75.30;96830.06;127504;1093;114115;-91
2021/06/26 05:13:02;;;;;;;14.98;11.68;;;;;;;19.37;75.12;96833.35;127686;1093;27285;-91
2021/06/26 05:15:33;;;;;;;14.43;11.23;;;;;;;18.99;75.71;96828.88;127479;1093;114350;-91
2021/06/26 05:18:05;;;;;;;16.28;12.35;;;;;;;18.78;76.43;96838.05;127644;1093;23492;-91
2021/06/26 05:20:37;;;;;;;13.85;11.35;;;;;;;18.65;76.98;96837.16;127665;1093;25724;-92
2021/06/26 05:23:16;;;;;;;13.10;10.53;;;;;;;18.52;77.53;96836.25;127536;1093;114066;-92
2021/06/26 05:25:48;;;;;;;13.55;11.75;;;;;;;18.42;77.96;96835.82;127555;1093;24454;-93
2021/06/26 05:28:19;;;;;;;13.65;10.90;;;;;;;18.33;78.30;96855.45;127478;1093;114049;-95
2021/06/26 05:30:51;;;;;;;12.50;11.13;;;;;;;18.25;78.46;96855.47;127502;1093;24186;-91
2021/06/26 05:33:22;;;;;;;12.10;10.40;;;;;;;18.20;78.58;96856.45;127523;1093;114212;-91
2021/06/26 05:35:53;;;;;;;11.45;9.98;;;;;;;18.17;78.66;96865.14;127681;1093;23046;-91
2021/06/26 05:38:25;;;;;;;13.43;10.35;;;;;;;18.16;78.94;96860.07;127594;1093;26112;-91
2021/06/26 05:40:57;;;;;;;10.63;9.05;;;;;;;18.15;79.02;96864.65;127572;1091;114475;-91
2021/06/26 05:43:28;;;;;;;10.57;8.23;;;;;;;18.18;79.05;96865.92;127668;1092;23542;-91
2021/06/26 05:46:00;;;;;;;11.60;10.23;;;;;;;18.22;78.84;96864.17;127500;1093;114216;-91
2021/06/26 05:48:31;;;;;;;14.30;9.33;;;;;;;18.26;79.03;96865.88;127643;1093;25146;-90
2021/06/26 05:51:03;;;;;;;13.35;9.93;;;;;;;18.32;78.96;96866.52;127654;1092;25152;-90
2021/06/26 05:53:34;;;;;;;11.60;9.03;;;;;;;18.36;78.87;96864.75;127500;1093;114527;-91
2021/06/26 05:56:06;;;;;;;12.30;9.28;;;;;;;18.38;78.89;96868.69;127628;1093;27168;-92
2021/06/26 05:58:38;;;;;;;10.55;8.23;;;;;;;18.39;79.00;96878.31;127507;1093;113945;-92
2021/06/26 06:01:11;;;;;;;11.18;9.58;;;;;;;18.34;79.03;96867.77;127571;1093;22973;-91
2021/06/26 06:03:42;;;;;;;14.53;10.18;;;;;;;18.33;79.25;96871.55;127421;1093;114560;-91
2021/06/26 06:06:14;;;;;;;10.53;8.38;;;;;;;18.35;79.25;96876.59;127526;1093;24575;-91
2021/06/26 06:08:45;;;;;;;10.70;8.53;;;;;;;18.33;79.30;96876.92;127504;1092;24580;-92
2021/06/26 06:11:17;;;;;;;10.85;9.50;;;;;;;18.42;79.44;96873.41;127461;1093;114031;-91
2021/06/26 06:13:48;;;;;;;12.58;9.80;;;;;;;18.53;79.75;96869.26;127539;1093;40216;-94
2021/06/26 06:16:20;;;;;;;10.80;8.60;;;;;;;18.54;79.55;96870.83;127392;1093;113935;-91
2021/06/26 06:18:52;;;;;;;11.40;8.10;;;;;;;18.61;79.79;96868.45;127477;1093;23262;-91
2021/06/26 06:21:23;;;;;;;9.05;7.55;;;;;;;18.65;79.55;96872.08;127546;1093;114726;-91
2021/06/26 06:23:55;;;;;;;11.83;8.93;;;;;;;18.72;79.77;96867.00;127590;1093;22832;-91
2021/06/26 06:26:26;;;;;;;12.30;9.33;;;;;;;18.78;79.85;96865.70;127510;1093;24062;-90
2021/06/26 06:28:58;;;;;;;11.48;9.23;;;;;;;18.82;79.29;96866.61;127508;1093;114599;-91
2021/06/26 06:31:29;;;;;;;13.85;11.23;;;;;;;18.74;79.26;96862.09;127536;1092;23591;-92
2021/06/26 06:34:01;;;;;;;13.18;9.63;;;;;;;18.63;79.22;96858.98;127465;1093;114810;-92
2021/06/26 06:36:33;;;;;;;11.00;8.73;;;;;;;18.58;79.55;96858.33;127607;1093;24372;-89
2021/06/26 06:39:04;;;;;;;11.38;9.33;;;;;;;18.52;79.52;96868.47;127586;1093;24440;-91
2021/06/26 06:41:36;;;;;;;10.68;8.75;;;;;;;18.49;79.76;96868.34;127514;1093;113682;-91
2021/06/26 06:44:09;;;;;;;10.28;9.15;;;;;;;18.49;80.03;96871.02;127695;1092;22899;-91
2021/06/26 06:46:41;;;;;;;11.58;8.88;;;;;;;18.61;80.05;96873.81;127499;1093;114033;-92
2021/06/26 06:49:13;;;;;;;10.43;8.18;;;;;;;18.61;80.02;96871.91;127477;1093;26159;-91
2021/06/26 06:51:45;;;;;;;9.65;7.83;;;;;;;18.63;79.97;96866.22;127491;1093;114707;-91
2021/06/26 06:54:16;;;;;;;10.20;8.10;;;;;;;18.59;79.80;96873.36;127647;1093;26960;-90
2021/06/26 06:56:48;;;;;;;12.90;9.60;;;;;;;18.53;79.86;96871.94;127584;1093;27251;-91
2021/06/26 06:59:20;;;;;;;13.48;9.38;;;;;;;18.48;80.01;96866.77;127553;1092;114058;-91
2021/06/26 07:01:52;;;;;;;10.43;9.30;;;;;;;18.50;80.28;96868.01;127617;1093;27623;-91
2021/06/26 07:04:23;;;;;;;10.00;8.13;;;;;;;18.52;80.05;96867.69;127452;1091;114449;-91
2021/06/26 07:06:55;;;;;;;11.70;9.75;;;;;;;18.43;79.96;96872.29;127614;1093;24008;-91
2021/06/26 07:09:28;;;;;;;10.53;9.10;;;;;;;18.43;80.24;96873.08;127482;1093;114273;-92
2021/06/26 07:11:59;;;;;;;11.70;10.10;;;;;;;18.32;80.01;96872.67;127604;1093;24217;-91
2021/06/26 07:14:30;;;;;;;10.28;9.10;;;;;;;18.28;80.14;96871.72;127614;1093;22799;-91
2021/06/26 07:17:02;;;;;;;11.53;9.78;;;;;;;18.23;80.19;96871.11;127465;1093;114529;-91
2021/06/26 07:19:33;;;;;;;11.23;8.88;;;;;;;18.25;80.35;96872.36;127569;1093;24361;-91
2021/06/26 07:22:05;;;;;;;13.83;9.48;;;;;;;18.29;80.69;96872.50;127602;1093;114219;-91
2021/06/26 07:24:37;;;;;;;10.83;8.63;;;;;;;18.24;80.24;96878.84;127519;1092;29131;-92
2021/06/26 07:27:10;;;;;;;10.73;9.20;;;;;;;18.22;80.58;96877.59;127516;1093;22936;-91
2021/06/26 07:29:41;;;;;;;12.57;10.07;;;;;;;18.24;80.82;96878.05;127444;1093;114492;-93
2021/06/26 07:32:13;;;;;;;14.40;9.28;;;;;;;18.20;80.81;96877.91;127573;1093;25078;-92
2021/06/26 07:34:45;;;;;;;13.40;11.58;;;;;;;18.15;81.28;96875.38;127555;1093;113098;-92
2021/06/26 07:37:16;;;;;;;16.27;12.90;;;;;;;18.12;81.54;96869.88;127593;1093;25905;-91
2021/06/26 07:39:48;;;;;;;14.17;11.93;;;;;;;18.12;81.82;96870.66;127476;1093;114444;-91
2021/06/26 07:42:19;;;;;;;13.75;11.00;;;;;;;18.12;81.98;96870.66;127605;1092;23331;-92
2021/06/26 07:44:51;;;;;;;17.20;13.88;;;;;;;18.13;81.95;96871.45;127580;1093;24566;-92
2021/06/26 07:47:23;;;;;;;16.03;13.20;;;;;;;18.13;82.05;96869.55;127448;1093;114569;-92
2021/06/26 07:49:54;;;;;;;17.13;12.27;;;;;;;18.19;82.08;96872.88;127512;1093;24982;-91
2021/06/26 07:52:26;;;;;;;15.28;10.80;;;;;;;18.24;82.68;96868.11;127442;1092;114023;-92
2021/06/26 07:54:57;;;;;;;14.30;11.68;;;;;;;18.43;82.87;96862.34;127611;1093;25487;-92
2021/06/26 07:57:30;;;;;;;13.18;9.93;;;;;;;18.59;82.24;96868.77;127469;1093;114706;-91
2021/06/26 08:00:02;;;;;;;10.88;9.33;;;;;;;18.68;81.86;96866.05;127444;1093;24904;-93
2021/06/26 08:02:33;;;;;;;11.80;10.00;;;;;;;18.64;81.09;96865.13;127518;1093;24428;-94
2021/06/26 08:05:05;;;;;;;12.98;10.00;;;;;;;18.63;80.99;96866.22;127354;1093;114652;-93
2021/06/26 08:07:37;;;;;;;11.00;8.77;;;;;;;18.54;80.15;96860.09;127538;1093;23624;-91
2021/06/26 08:10:10;;;;;;;11.95;9.75;;;;;;;18.54;80.55;96862.77;127506;1093;113852;-92
2021/06/26 08:12:42;;;;;;;9.88;8.25;;;;;;;18.62;80.31;96864.64;127490;1093;22892;-92
2021/06/26 08:15:17;;;;;;;10.50;9.13;;;;;;;18.62;79.99;96861.96;127434;1093;25127;-91
2021/06/26 08:17:48;;;;;;;11.53;9.75;;;;;;;18.64;79.90;96859.77;127358;1092;113750;-91
2021/06/26 08:20:20;;;;;;;12.90;9.48;;;;;;;18.63;79.60;96852.79;127574;1093;23751;-91
2021/06/26 08:22:52;;;;;;;13.65;10.10;;;;;;;18.59;79.37;96844.60;127540;1093;114554;-91
2021/06/26 08:25:23;;;;;;;14.40;9.75;;;;;;;18.62;79.77;96846.63;127542;1093;24137;-91
2021/06/26 08:27:55;;;;;;;13.23;10.28;;;;;;;18.69;79.51;96843.45;127468;1093;114174;-92
2021/06/26 08:30:26;;;;;;;10.65;9.00;;;;;;;18.67;79.44;96838.41;127447;1093;23529;-95
2021/06/26 08:32:58;;;;;;;13.88;10.33;;;;;;;18.67;79.50;96843.00;127460;1093;22854;-94
2021/06/26 08:35:29;;;;;;;11.03;9.83;;;;;;;18.76;79.83;96838.38;127426;1093;114227;-90
2021/06/26 08:38:01;;;;;;;12.68;10.03;;;;;;;18.78;79.60;96838.83;127614;1093;23651;-91
2021/06/26 08:40:32;;;;;;;12.95;10.38;;;;;;;18.87;79.97;96836.89;127480;1093;114162;-91
2021/06/26 08:43:04;;;;;;;13.48;11.33;;;;;;;18.97;80.04;96827.64;127525;1093;23291;-90
2021/06/26 08:45:38;;;;;;;16.13;10.75;;;;;;;19.06;79.80;96832.97;127449;1093;114373;-91
2021/06/26 08:48:10;;;;;;;11.68;9.78;;;;;;;19.17;80.31;96831.47;127623;1092;23534;-90
2021/06/26 08:50:42;;;;;;;13.68;11.33;;;;;;;19.26;79.53;96826.80;127544;1093;27411;-93
2021/06/26 08:53:13;;;;;;;14.58;11.80;;;;;;;19.33;79.56;96827.06;127486;1091;114314;-91
2021/06/26 08:55:45;;;;;;;12.03;10.03;;;;;;;19.32;79.10;96830.09;127598;1093;26908;-92
2021/06/26 08:58:16;;;;;;;15.10;10.00;;;;;;;19.39;79.22;96824.95;127488;1093;114076;-91
2021/06/26 09:00:48;;;;;;;10.45;8.90;;;;;;;19.45;79.11;96820.96;127596;1093;24508;-91
2021/06/26 09:03:24;;;;;;;11.43;9.25;;;;;;;19.58;78.96;96819.92;127632;1093;23227;-89
2021/06/26 09:06:06;;;;;;;11.33;9.80;;;;;;;19.72;79.09;96823.11;127534;1093;113761;-91
2021/06/26 09:08:48;;;;;;;12.40;11.05;;;;;;;19.86;78.36;96818.22;127690;1093;23156;-90
2021/06/26 09:11:22;;;;;;;12.58;8.90;;;;;;;19.86;78.31;96820.13;127508;1092;114170;-90
2021/06/26 09:13:53;;;;;;;10.75;8.73;;;;;;;19.84;77.67;96825.03;127658;1093;23190;-90
2021/06/26 09:16:24;;;;;;;9.70;8.15;;;;;;;19.86;77.30;96814.74;127474;1093;114067;-90
2021/06/26 09:18:56;;;;;;;11.38;9.08;;;;;;;19.79;76.75;96819.87;127574;1093;26656;-91
2021/06/26 09:21:30;;;;;;;10.65;8.98;;;;;;;19.77;76.60;96822.89;127564;1092;23786;-92
2021/06/26 09:24:09;;;;;;;9.55;8.40;;;;;;;19.85;76.78;96813.95;127372;1093;113875;-91
2021/06/26 09:26:44;;;;;;;11.00;8.50;;;;;;;19.86;76.10;96817.43;127588;1093;22825;-93
2021/06/26 09:29:17;;;;;;;9.70;7.95;;;;;;;19.99;76.94;96819.03;127457;1093;114011;-92
2021/06/26 09:31:53;;;;;;;11.10;8.25;;;;;;;20.16;75.97;96826.91;127448;1093;25810;-93
2021/06/26 09:34:38;;;;;;;10.43;8.75;;;;;;;20.14;75.33;96823.77;127353;1092;114223;-92
2021/06/26 09:37:12;;;;;;;9.93;7.80;;;;;;;20.32;76.60;96828.94;127700;1093;25411;-90
2021/06/26 09:39:46;;;;;;;9.85;7.90;;;;;;;20.41;75.23;96821.55;127454;1093;113882;-90
2021/06/26 09:42:23;;;;;;;9.70;7.55;;;;;;;20.43;74.98;96822.03;127636;1093;24943;-90
2021/06/26 09:44:57;;;;;;;11.60;8.78;;;;;;;20.50;74.93;96818.76;127647;1092;23344;-90
2021/06/26 09:47:34;;;;;;;9.90;8.28;;;;;;;20.61;74.85;96826.05;127569;1093;114596;-90
2021/06/26 09:50:18;;;;;;;10.45;8.05;;;;;;;20.60;74.04;96821.80;127662;1091;24986;-90
2021/06/26 09:52:51;;;;;;;12.20;8.40;;;;;;;20.51;73.76;96825.72;127570;1093;113931;-91
2021/06/26 09:55:25;;;;;;;10.53;8.18;;;;;;;20.61;73.23;96831.45;127571;1092;23474;-90
2021/06/26 09:57:59;;;;;;;9.15;7.60;;;;;;;20.63;72.92;96829.20;127432;1092;114579;-92
2021/06/26 10:00:32;;;;;;;6.90;6.03;;;;;;;20.85;73.17;96827.95;127461;1093;25047;-92
2021/06/26 10:03:03;;;;;;;7.68;5.98;;;;;;;21.11;72.48;96826.77;127550;1093;26280;-93
2021/06/26 10:05:35;;;;;;;8.58;6.38;;;;;;;21.43;71.82;96830.42;127484;1093;114100;-92
2021/06/26 10:08:09;;;;;;;8.87;5.67;;;;;;;21.93;72.33;96817.13;127661;1092;24083;-93
2021/06/26 10:10:40;;;;;;;10.53;6.08;;;;;;;22.09;70.36;96817.17;127566;1092;114301;-91
2021/06/26 10:13:14;;;;;;;8.33;7.08;;;;;;;22.14;69.92;96813.45;127610;1093;39942;-90
2021/06/26 10:15:46;;;;;;;7.20;6.25;;;;;;;22.19;69.60;96815.88;127445;1093;113990;-93
2021/06/26 10:18:17;;;;;;;7.60;6.58;;;;;;;22.09;68.48;96813.69;127517;1093;23498;-92
2021/06/26 10:20:49;;;;;;;10.43;7.40;;;;;;;21.71;67.56;96817.72;127563;1093;23080;-93
2021/06/26 10:23:21;;;;;;;9.60;7.50;;;;;;;21.55;68.41;96817.67;127384;1093;113914;-91
2021/06/26 10:25:52;;;;;;;9.60;8.20;;;;;;;21.48;68.64;96819.38;127512;1093;22949;-94
2021/06/26 10:28:24;;;;;;;9.23;7.25;;;;;;;21.63;68.67;96818.64;127455;1092;114568;-90
2021/06/26 10:31:02;;;;;;;9.83;8.00;;;;;;;21.58;67.76;96818.90;127611;1093;23129;-91
2021/06/26 10:33:34;;;;;;;8.85;7.88;;;;;;;21.55;68.25;96814.20;127640;1093;24632;-91
2021/06/26 10:36:06;;;;;;;9.05;7.15;;;;;;;21.61;68.16;96818.98;127557;1093;114009;-91
2021/06/26 10:38:46;;;;;;;7.98;7.18;;;;;;;21.74;68.06;96818.94;127661;1093;23419;-91
2021/06/26 10:41:22;;;;;;;8.00;6.68;;;;;;;21.82;67.81;96821.48;127495;1093;115661;-91
2021/06/26 10:44:00;;;;;;;7.38;6.53;;;;;;;21.92;67.75;96825.58;127605;1093;24022;-91
2021/06/26 10:46:32;;;;;;;8.43;6.93;;;;;;;21.88;68.10;96819.31;127487;1093;113788;-91
2021/06/26 10:49:06;;;;;;;9.28;7.38;;;;;;;21.93;67.66;96819.83;127644;1092;26333;-91
2021/06/26 10:51:40;;;;;;;9.25;7.50;;;;;;;21.89;67.41;96821.66;127690;1093;24384;-92
2021/06/26 10:54:17;;;;;;;8.50;6.70;;;;;;;22.03;67.51;96818.55;127513;1093;114477;-91
2021/06/26 10:56:51;;;;;;;9.58;7.18;;;;;;;22.19;67.70;96818.58;127589;1093;24759;-91
2021/06/26 10:59:23;;;;;;;7.87;6.67;;;;;;;22.34;67.94;96825.90;127484;1093;114539;-91
2021/06/26 11:01:59;;;;;;;9.53;6.50;;;;;;;22.33;66.85;96821.63;127614;1093;23414;-92
2021/06/26 11:04:33;;;;;;;7.75;6.75;;;;;;;22.23;66.18;96825.63;127494;1093;114031;-92
2021/06/26 11:07:10;;;;;;;8.58;7.10;;;;;;;22.06;65.81;96820.57;127621;1093;23268;-92
2021/06/26 11:09:46;;;;;;;8.58;7.68;;;;;;;22.04;66.15;96814.71;127726;1093;35979;-92
2021/06/26 11:12:20;;;;;;;8.27;7.00;;;;;;;22.11;66.63;96824.95;127475;1092;114068;-92
2021/06/26 11:14:54;;;;;;;10.33;7.10;;;;;;;22.11;66.15;96814.15;127618;1093;23909;-92
2021/06/26 11:17:37;;;;;;;8.45;6.83;;;;;;;22.25;67.22;96816.42;127502;1093;113887;-92
2021/06/26 11:20:12;;;;;;;9.18;7.48;;;;;;;22.58;67.35;96805.23;127688;1092;24475;-91
2021/06/26 11:22:52;;;;;;;7.95;6.93;;;;;;;22.86;67.36;96797.80;127504;1093;113678;-91
2021/06/26 11:25:26;;;;;;;7.53;6.67;;;;;;;23.03;66.74;96794.69;127525;1093;25960;-93
2021/06/26 11:28:07;;;;;;;6.68;5.98;;;;;;;22.90;64.77;96792.45;127555;1093;113910;-93
2021/06/26 11:30:38;;;;;;;;;;;;;;;22.78;64.58;96798.73;127691;1093;23807;-90
2021/06/26 11:33:10;;;;;;;9.20;6.03;;;;;;;22.54;62.40;96801.67;127635;1093;26170;-90
2021/06/26 11:35:43;;;;;;;6.60;5.90;;;;;;;22.21;63.13;96808.21;127448;1093;113709;-91